sensor_id;sensor_type;location;lat;lon;timestamp;temperature;humidity
5834;DHT22;2943;48.012;10.968;2022-12-16T00:01:21;0.50;99.90
5834;DHT22;2943;48.012;10.968;2022-12-16T00:03:50;0.40;99.90
5834;DHT22;2943;48.012;10.968;2022-12-16T00:06:17;0.40;99.90
5834;DHT22;2943;48.012;10.968;2022-12-16T00:08:46;0.40;99.90
5834;DHT22;2943;48.012;10.968;2022-12-16T00:11:13;0.30;99.90
5834;DHT22;2943;48.012;10.968;2022-12-16T00:13:41;0.30;99.90
5834;DHT22;2943;48.012;10.968;2022-12-16T00:16:10;0.30;99.90
5834;DHT22;2943;48.012;10.968;2022-12-16T00:18:37;0.30;99.90
5834;DHT22;2943;48.012;10.968;2022-12-16T00:21:04;0.30;99.90
5834;DHT22;2943;48.012;10.968;2022-12-16T00:23:32;0.30;99.90
5834;DHT22;2943;48.012;10.968;2022-12-16T00:26:01;0.40;99.90
5834;DHT22;2943;48.012;10.968;2022-12-16T00:28:28;0.30;99.90
5834;DHT22;2943;48.012;10.968;2022-12-16T00:30:55;0.30;99.90
5834;DHT22;2943;48.012;10.968;2022-12-16T00:33:24;0.30;99.90
5834;DHT22;2943;48.012;10.968;2022-12-16T00:35:53;0.30;99.90
5834;DHT22;2943;48.012;10.968;2022-12-16T00:38:22;0.30;99.90
5834;DHT22;2943;48.012;10.968;2022-12-16T00:40:49;0.30;99.90
5834;DHT22;2943;48.012;10.968;2022-12-16T00:43:17;0.20;99.90
5834;DHT22;2943;48.012;10.968;2022-12-16T00:45:47;0.30;99.90
5834;DHT22;2943;48.012;10.968;2022-12-16T00:48:14;0.30;99.90
5834;DHT22;2943;48.012;10.968;2022-12-16T00:50:45;0.30;99.90
5834;DHT22;2943;48.012;10.968;2022-12-16T00:53:12;0.20;99.90
5834;DHT22;2943;48.012;10.968;2022-12-16T00:55:39;0.20;99.90
5834;DHT22;2943;48.012;10.968;2022-12-16T00:58:06;0.20;99.90
5834;DHT22;2943;48.012;10.968;2022-12-16T01:00:35;0.10;99.90
5834;DHT22;2943;48.012;10.968;2022-12-16T01:03:02;0.10;99.90
5834;DHT22;2943;48.012;10.968;2022-12-16T01:05:29;0.10;99.90
5834;DHT22;2943;48.012;10.968;2022-12-16T01:07:56;0.10;99.90
5834;DHT22;2943;48.012;10.968;2022-12-16T01:10:24;0.10;99.90
5834;DHT22;2943;48.012;10.968;2022-12-16T01:12:51;0.10;99.90
5834;DHT22;2943;48.012;10.968;2022-12-16T01:15:20;0.10;99.90
5834;DHT22;2943;48.012;10.968;2022-12-16T01:17:48;0.10;99.90
5834;DHT22;2943;48.012;10.968;2022-12-16T01:20:17;0.10;99.90
5834;DHT22;2943;48.012;10.968;2022-12-16T01:22:44;0.10;99.90
5834;DHT22;2943;48.012;10.968;2022-12-16T01:25:11;0.10;99.90
5834;DHT22;2943;48.012;10.968;2022-12-16T01:27:40;0.10;99.90
5834;DHT22;2943;48.012;10.968;2022-12-16T01:30:08;0.00;99.90
5834;DHT22;2943;48.012;10.968;2022-12-16T01:32:38;0.00;99.90
5834;DHT22;2943;48.012;10.968;2022-12-16T01:35:07;0.00;99.90
5834;DHT22;2943;48.012;10.968;2022-12-16T01:37:34;0.00;99.90
5834;DHT22;2943;48.012;10.968;2022-12-16T01:40:06;0.00;99.90
5834;DHT22;2943;48.012;10.968;2022-12-16T01:42:34;0.00;99.90
5834;DHT22;2943;48.012;10.968;2022-12-16T01:45:27;0.00;99.90
5834;DHT22;2943;48.012;10.968;2022-12-16T01:47:58;0.00;99.90
5834;DHT22;2943;48.012;10.968;2022-12-16T01:50:28;0.00;99.90
5834;DHT22;2943;48.012;10.968;2022-12-16T01:52:58;0.00;99.90
5834;DHT22;2943;48.012;10.968;2022-12-16T01:55:30;0.00;99.90
5834;DHT22;2943;48.012;10.968;2022-12-16T01:58:00;0.00;99.90
5834;DHT22;2943;48.012;10.968;2022-12-16T02:00:28;0.10;99.90
5834;DHT22;2943;48.012;10.968;2022-12-16T02:02:56;0.10;99.90
5834;DHT22;2943;48.012;10.968;2022-12-16T02:05:23;0.10;99.90
5834;DHT22;2943;48.012;10.968;2022-12-16T02:07:57;0.10;99.90
5834;DHT22;2943;48.012;10.968;2022-12-16T02:10:33;0.00;99.90
5834;DHT22;2943;48.012;10.968;2022-12-16T02:13:10;0.00;99.90
5834;DHT22;2943;48.012;10.968;2022-12-16T02:15:42;0.00;99.90
5834;DHT22;2943;48.012;10.968;2022-12-16T02:18:16;0.00;99.90
5834;DHT22;2943;48.012;10.968;2022-12-16T02:21:16;-0.10;99.90
5834;DHT22;2943;48.012;10.968;2022-12-16T02:24:17;-0.10;99.90
5834;DHT22;2943;48.012;10.968;2022-12-16T02:27:20;-0.10;99.90
5834;DHT22;2943;48.012;10.968;2022-12-16T02:30:07;-0.20;99.90
5834;DHT22;2943;48.012;10.968;2022-12-16T02:32:46;-0.20;99.90
5834;DHT22;2943;48.012;10.968;2022-12-16T02:35:22;-0.20;99.90
5834;DHT22;2943;48.012;10.968;2022-12-16T02:37:59;-0.20;99.90
5834;DHT22;2943;48.012;10.968;2022-12-16T02:40:41;-0.20;99.90
5834;DHT22;2943;48.012;10.968;2022-12-16T02:43:16;-0.20;99.90
5834;DHT22;2943;48.012;10.968;2022-12-16T02:45:45;-0.20;99.90
5834;DHT22;2943;48.012;10.968;2022-12-16T02:48:14;-0.30;99.90
5834;DHT22;2943;48.012;10.968;2022-12-16T02:50:45;-0.30;99.90
5834;DHT22;2943;48.012;10.968;2022-12-16T02:53:13;-0.40;99.90
5834;DHT22;2943;48.012;10.968;2022-12-16T02:55:48;-0.50;99.90
5834;DHT22;2943;48.012;10.968;2022-12-16T02:58:20;-0.50;99.90
5834;DHT22;2943;48.012;10.968;2022-12-16T03:00:58;-0.60;99.90
5834;DHT22;2943;48.012;10.968;2022-12-16T03:03:34;-0.60;99.90
5834;DHT22;2943;48.012;10.968;2022-12-16T03:06:03;-0.70;99.90
5834;DHT22;2943;48.012;10.968;2022-12-16T03:08:33;-0.70;99.90
5834;DHT22;2943;48.012;10.968;2022-12-16T03:11:03;-0.60;99.90
5834;DHT22;2943;48.012;10.968;2022-12-16T03:13:38;-0.60;99.90
5834;DHT22;2943;48.012;10.968;2022-12-16T03:16:10;-0.60;99.90
5834;DHT22;2943;48.012;10.968;2022-12-16T03:18:42;-0.50;99.90
5834;DHT22;2943;48.012;10.968;2022-12-16T03:21:10;-0.50;99.90
5834;DHT22;2943;48.012;10.968;2022-12-16T03:23:43;-0.50;99.90
5834;DHT22;2943;48.012;10.968;2022-12-16T03:26:15;-0.60;99.90
5834;DHT22;2943;48.012;10.968;2022-12-16T03:28:48;-0.60;99.90
5834;DHT22;2943;48.012;10.968;2022-12-16T03:31:24;-0.70;99.90
5834;DHT22;2943;48.012;10.968;2022-12-16T03:33:57;-0.70;99.90
5834;DHT22;2943;48.012;10.968;2022-12-16T03:36:27;-0.80;99.90
5834;DHT22;2943;48.012;10.968;2022-12-16T03:38:59;-0.90;99.90
5834;DHT22;2943;48.012;10.968;2022-12-16T03:41:28;-0.90;99.90
5834;DHT22;2943;48.012;10.968;2022-12-16T03:43:56;-0.90;99.90
5834;DHT22;2943;48.012;10.968;2022-12-16T03:46:23;-0.90;99.90
5834;DHT22;2943;48.012;10.968;2022-12-16T03:48:51;-0.90;99.90
5834;DHT22;2943;48.012;10.968;2022-12-16T03:51:20;-0.90;99.90
5834;DHT22;2943;48.012;10.968;2022-12-16T03:53:47;-1.00;99.90
5834;DHT22;2943;48.012;10.968;2022-12-16T03:56:14;-1.00;99.90
5834;DHT22;2943;48.012;10.968;2022-12-16T03:58:41;-1.00;99.90
5834;DHT22;2943;48.012;10.968;2022-12-16T04:01:09;-1.00;99.90
5834;DHT22;2943;48.012;10.968;2022-12-16T04:03:37;-0.90;99.90
5834;DHT22;2943;48.012;10.968;2022-12-16T04:06:05;-0.90;99.90
5834;DHT22;2943;48.012;10.968;2022-12-16T04:08:33;-1.00;99.90
5834;DHT22;2943;48.012;10.968;2022-12-16T04:11:00;-1.00;99.90
5834;DHT22;2943;48.012;10.968;2022-12-16T04:13:44;-1.00;99.90
5834;DHT22;2943;48.012;10.968;2022-12-16T04:16:29;-1.00;99.90
5834;DHT22;2943;48.012;10.968;2022-12-16T04:19:21;-1.00;99.90
5834;DHT22;2943;48.012;10.968;2022-12-16T04:22:11;-1.00;99.90
5834;DHT22;2943;48.012;10.968;2022-12-16T04:25:00;-1.00;99.90
5834;DHT22;2943;48.012;10.968;2022-12-16T04:27:28;-1.00;99.90
5834;DHT22;2943;48.012;10.968;2022-12-16T04:29:55;-1.00;99.90
5834;DHT22;2943;48.012;10.968;2022-12-16T04:32:40;-1.00;99.90
5834;DHT22;2943;48.012;10.968;2022-12-16T04:35:24;-1.10;99.90
5834;DHT22;2943;48.012;10.968;2022-12-16T04:38:08;-1.20;99.90
5834;DHT22;2943;48.012;10.968;2022-12-16T04:40:55;-1.20;99.90
5834;DHT22;2943;48.012;10.968;2022-12-16T04:43:39;-1.20;99.90
5834;DHT22;2943;48.012;10.968;2022-12-16T04:46:23;-1.20;99.90
5834;DHT22;2943;48.012;10.968;2022-12-16T04:49:08;-1.20;99.90
5834;DHT22;2943;48.012;10.968;2022-12-16T04:51:52;-1.10;99.90
5834;DHT22;2943;48.012;10.968;2022-12-16T04:54:36;-1.10;99.90
5834;DHT22;2943;48.012;10.968;2022-12-16T04:57:23;-1.10;99.90
5834;DHT22;2943;48.012;10.968;2022-12-16T05:00:08;-1.00;99.90
5834;DHT22;2943;48.012;10.968;2022-12-16T05:02:55;-1.10;99.90
5834;DHT22;2943;48.012;10.968;2022-12-16T05:05:40;-1.00;99.90
5834;DHT22;2943;48.012;10.968;2022-12-16T05:08:24;-1.00;99.90
5834;DHT22;2943;48.012;10.968;2022-12-16T05:11:09;-1.00;99.90
5834;DHT22;2943;48.012;10.968;2022-12-16T05:13:55;-1.00;99.90
5834;DHT22;2943;48.012;10.968;2022-12-16T05:16:40;-1.00;99.90
5834;DHT22;2943;48.012;10.968;2022-12-16T05:19:24;-1.00;99.90
5834;DHT22;2943;48.012;10.968;2022-12-16T05:22:09;-1.00;99.90
5834;DHT22;2943;48.012;10.968;2022-12-16T05:24:53;-1.00;99.90
5834;DHT22;2943;48.012;10.968;2022-12-16T05:27:38;-1.00;99.90
5834;DHT22;2943;48.012;10.968;2022-12-16T05:30:23;-1.10;99.90
5834;DHT22;2943;48.012;10.968;2022-12-16T05:33:22;-1.20;99.90
5834;DHT22;2943;48.012;10.968;2022-12-16T05:36:15;-1.20;99.90
5834;DHT22;2943;48.012;10.968;2022-12-16T05:38:59;-1.20;99.90
5834;DHT22;2943;48.012;10.968;2022-12-16T05:41:41;-1.20;99.90
5834;DHT22;2943;48.012;10.968;2022-12-16T05:44:26;-1.20;99.90
5834;DHT22;2943;48.012;10.968;2022-12-16T05:47:12;-1.20;99.90
5834;DHT22;2943;48.012;10.968;2022-12-16T05:49:53;-1.20;99.90
5834;DHT22;2943;48.012;10.968;2022-12-16T05:52:37;-1.20;99.90
5834;DHT22;2943;48.012;10.968;2022-12-16T05:55:22;-1.20;99.90
5834;DHT22;2943;48.012;10.968;2022-12-16T05:58:08;-1.20;99.90
5834;DHT22;2943;48.012;10.968;2022-12-16T06:00:52;-1.30;99.90
5834;DHT22;2943;48.012;10.968;2022-12-16T06:03:39;-1.30;99.90
5834;DHT22;2943;48.012;10.968;2022-12-16T06:06:23;-1.30;99.90
5834;DHT22;2943;48.012;10.968;2022-12-16T06:09:08;-1.30;99.90
5834;DHT22;2943;48.012;10.968;2022-12-16T06:11:53;-1.30;99.90
5834;DHT22;2943;48.012;10.968;2022-12-16T06:14:37;-1.30;99.90
5834;DHT22;2943;48.012;10.968;2022-12-16T06:17:21;-1.30;99.90
5834;DHT22;2943;48.012;10.968;2022-12-16T06:20:08;-1.30;99.90
5834;DHT22;2943;48.012;10.968;2022-12-16T06:22:53;-1.30;99.90
5834;DHT22;2943;48.012;10.968;2022-12-16T06:25:37;-1.40;99.90
5834;DHT22;2943;48.012;10.968;2022-12-16T06:28:22;-1.40;99.90
5834;DHT22;2943;48.012;10.968;2022-12-16T06:31:07;-1.50;99.90
5834;DHT22;2943;48.012;10.968;2022-12-16T06:34:06;-1.60;99.90
5834;DHT22;2943;48.012;10.968;2022-12-16T06:36:52;-1.60;99.90
5834;DHT22;2943;48.012;10.968;2022-12-16T06:39:36;-1.60;99.90
5834;DHT22;2943;48.012;10.968;2022-12-16T06:42:21;-1.60;99.90
5834;DHT22;2943;48.012;10.968;2022-12-16T06:45:05;-1.60;99.90
5834;DHT22;2943;48.012;10.968;2022-12-16T06:48:01;-1.60;99.90
5834;DHT22;2943;48.012;10.968;2022-12-16T06:50:47;-1.50;99.90
5834;DHT22;2943;48.012;10.968;2022-12-16T06:53:33;-1.50;99.90
5834;DHT22;2943;48.012;10.968;2022-12-16T06:56:17;-1.50;99.90
5834;DHT22;2943;48.012;10.968;2022-12-16T06:59:02;-1.50;99.90
5834;DHT22;2943;48.012;10.968;2022-12-16T07:01:46;-1.50;99.90
5834;DHT22;2943;48.012;10.968;2022-12-16T07:04:32;-1.40;99.90
5834;DHT22;2943;48.012;10.968;2022-12-16T07:07:16;-1.40;99.90
5834;DHT22;2943;48.012;10.968;2022-12-16T07:10:04;-1.40;99.90
5834;DHT22;2943;48.012;10.968;2022-12-16T07:12:49;-1.40;99.90
5834;DHT22;2943;48.012;10.968;2022-12-16T07:15:33;-1.40;99.90
5834;DHT22;2943;48.012;10.968;2022-12-16T07:18:17;-1.40;99.90
5834;DHT22;2943;48.012;10.968;2022-12-16T07:21:01;-1.50;99.90
5834;DHT22;2943;48.012;10.968;2022-12-16T07:23:46;-1.40;99.90
5834;DHT22;2943;48.012;10.968;2022-12-16T07:26:31;-1.40;99.90
5834;DHT22;2943;48.012;10.968;2022-12-16T07:29:12;-1.30;99.90
5834;DHT22;2943;48.012;10.968;2022-12-16T07:31:56;-1.30;99.90
5834;DHT22;2943;48.012;10.968;2022-12-16T07:34:40;-1.30;99.90
5834;DHT22;2943;48.012;10.968;2022-12-16T07:37:25;-1.30;99.90
5834;DHT22;2943;48.012;10.968;2022-12-16T07:40:09;-1.40;99.90
5834;DHT22;2943;48.012;10.968;2022-12-16T07:42:55;-1.30;99.90
5834;DHT22;2943;48.012;10.968;2022-12-16T07:45:40;-1.30;99.90
5834;DHT22;2943;48.012;10.968;2022-12-16T07:48:24;-1.30;99.90
5834;DHT22;2943;48.012;10.968;2022-12-16T07:51:08;-1.30;99.90
5834;DHT22;2943;48.012;10.968;2022-12-16T07:53:53;-1.30;99.90
5834;DHT22;2943;48.012;10.968;2022-12-16T07:56:37;-1.30;99.90
5834;DHT22;2943;48.012;10.968;2022-12-16T07:59:22;-1.30;99.90
5834;DHT22;2943;48.012;10.968;2022-12-16T08:02:09;-1.30;99.90
5834;DHT22;2943;48.012;10.968;2022-12-16T08:04:54;-1.20;99.90
5834;DHT22;2943;48.012;10.968;2022-12-16T08:07:39;-1.20;99.90
5834;DHT22;2943;48.012;10.968;2022-12-16T08:10:23;-1.10;99.90
5834;DHT22;2943;48.012;10.968;2022-12-16T08:13:08;-1.10;99.90
5834;DHT22;2943;48.012;10.968;2022-12-16T08:15:54;-1.10;99.90
5834;DHT22;2943;48.012;10.968;2022-12-16T08:18:38;-1.10;99.90
5834;DHT22;2943;48.012;10.968;2022-12-16T08:21:23;-1.10;99.90
5834;DHT22;2943;48.012;10.968;2022-12-16T08:24:07;-1.10;99.90
5834;DHT22;2943;48.012;10.968;2022-12-16T08:26:51;-1.10;99.90
5834;DHT22;2943;48.012;10.968;2022-12-16T08:29:36;-1.10;99.90
5834;DHT22;2943;48.012;10.968;2022-12-16T08:32:23;-1.10;99.90
5834;DHT22;2943;48.012;10.968;2022-12-16T08:35:07;-1.20;99.90
5834;DHT22;2943;48.012;10.968;2022-12-16T08:37:54;-1.20;99.90
5834;DHT22;2943;48.012;10.968;2022-12-16T08:40:40;-1.20;99.90
5834;DHT22;2943;48.012;10.968;2022-12-16T08:43:24;-1.30;99.90
5834;DHT22;2943;48.012;10.968;2022-12-16T08:46:09;-1.30;99.90
5834;DHT22;2943;48.012;10.968;2022-12-16T08:48:54;-1.30;99.90
5834;DHT22;2943;48.012;10.968;2022-12-16T08:51:39;-1.30;99.90
5834;DHT22;2943;48.012;10.968;2022-12-16T08:54:25;-1.30;99.90
5834;DHT22;2943;48.012;10.968;2022-12-16T08:57:09;-1.30;99.90
5834;DHT22;2943;48.012;10.968;2022-12-16T08:59:54;-1.30;99.90
5834;DHT22;2943;48.012;10.968;2022-12-16T09:02:38;-1.30;99.90
5834;DHT22;2943;48.012;10.968;2022-12-16T09:05:23;-1.40;99.90
5834;DHT22;2943;48.012;10.968;2022-12-16T09:08:08;-1.40;99.90
5834;DHT22;2943;48.012;10.968;2022-12-16T09:10:52;-1.50;99.90
5834;DHT22;2943;48.012;10.968;2022-12-16T09:13:36;-1.50;99.90
5834;DHT22;2943;48.012;10.968;2022-12-16T09:16:29;-1.30;99.90
5834;DHT22;2943;48.012;10.968;2022-12-16T09:19:13;-1.30;99.90
5834;DHT22;2943;48.012;10.968;2022-12-16T09:21:59;-1.30;99.90
5834;DHT22;2943;48.012;10.968;2022-12-16T09:24:43;-1.40;99.90
5834;DHT22;2943;48.012;10.968;2022-12-16T09:27:28;-1.40;99.90
5834;DHT22;2943;48.012;10.968;2022-12-16T09:30:12;-1.50;99.90
5834;DHT22;2943;48.012;10.968;2022-12-16T09:32:56;-1.50;99.90
5834;DHT22;2943;48.012;10.968;2022-12-16T09:35:41;-1.50;99.90
5834;DHT22;2943;48.012;10.968;2022-12-16T09:38:26;-1.50;99.90
5834;DHT22;2943;48.012;10.968;2022-12-16T09:41:22;-1.60;99.90
5834;DHT22;2943;48.012;10.968;2022-12-16T09:44:16;-1.60;99.90
5834;DHT22;2943;48.012;10.968;2022-12-16T09:47:06;-1.70;99.90
5834;DHT22;2943;48.012;10.968;2022-12-16T09:49:54;-1.60;99.90
5834;DHT22;2943;48.012;10.968;2022-12-16T09:52:41;-1.60;99.90
5834;DHT22;2943;48.012;10.968;2022-12-16T09:55:32;-1.40;99.90
5834;DHT22;2943;48.012;10.968;2022-12-16T09:58:19;-1.40;99.90
5834;DHT22;2943;48.012;10.968;2022-12-16T10:01:05;-1.40;99.90
5834;DHT22;2943;48.012;10.968;2022-12-16T10:03:50;-1.40;99.90
5834;DHT22;2943;48.012;10.968;2022-12-16T10:06:41;-1.30;99.90
5834;DHT22;2943;48.012;10.968;2022-12-16T10:09:31;-1.30;99.90
5834;DHT22;2943;48.012;10.968;2022-12-16T10:12:29;-1.30;99.90
5834;DHT22;2943;48.012;10.968;2022-12-16T10:15:28;-1.30;99.90
5834;DHT22;2943;48.012;10.968;2022-12-16T10:18:24;-1.20;99.90
5834;DHT22;2943;48.012;10.968;2022-12-16T10:21:17;-1.20;99.90
5834;DHT22;2943;48.012;10.968;2022-12-16T10:24:13;-1.10;99.90
5834;DHT22;2943;48.012;10.968;2022-12-16T10:27:08;-1.10;99.90
5834;DHT22;2943;48.012;10.968;2022-12-16T10:29:56;-1.00;99.90
5834;DHT22;2943;48.012;10.968;2022-12-16T10:32:44;-1.00;99.90
5834;DHT22;2943;48.012;10.968;2022-12-16T10:35:34;-0.90;99.90
5834;DHT22;2943;48.012;10.968;2022-12-16T10:38:22;-0.90;99.90
5834;DHT22;2943;48.012;10.968;2022-12-16T10:41:08;-0.90;99.90
5834;DHT22;2943;48.012;10.968;2022-12-16T10:43:57;-1.00;99.90
5834;DHT22;2943;48.012;10.968;2022-12-16T10:46:43;-1.00;99.90
5834;DHT22;2943;48.012;10.968;2022-12-16T10:49:27;-1.00;99.90
5834;DHT22;2943;48.012;10.968;2022-12-16T10:52:12;-1.00;99.90
5834;DHT22;2943;48.012;10.968;2022-12-16T10:55:05;-1.00;99.90
5834;DHT22;2943;48.012;10.968;2022-12-16T10:57:59;-1.00;99.90
5834;DHT22;2943;48.012;10.968;2022-12-16T11:00:49;-1.00;99.90
5834;DHT22;2943;48.012;10.968;2022-12-16T11:03:36;-1.00;99.90
5834;DHT22;2943;48.012;10.968;2022-12-16T11:06:24;-1.00;99.90
5834;DHT22;2943;48.012;10.968;2022-12-16T11:09:23;-1.00;99.90
5834;DHT22;2943;48.012;10.968;2022-12-16T11:12:21;-0.90;99.90
5834;DHT22;2943;48.012;10.968;2022-12-16T11:15:21;-0.90;99.90
5834;DHT22;2943;48.012;10.968;2022-12-16T11:18:09;-0.90;99.90
5834;DHT22;2943;48.012;10.968;2022-12-16T11:21:14;-0.80;99.90
5834;DHT22;2943;48.012;10.968;2022-12-16T11:24:14;-0.80;99.90
5834;DHT22;2943;48.012;10.968;2022-12-16T11:27:01;-0.70;99.90
5834;DHT22;2943;48.012;10.968;2022-12-16T11:29:50;-0.70;99.90
5834;DHT22;2943;48.012;10.968;2022-12-16T11:32:36;-0.70;99.90
5834;DHT22;2943;48.012;10.968;2022-12-16T11:35:24;-0.50;99.90
5834;DHT22;2943;48.012;10.968;2022-12-16T11:38:19;-0.50;99.90
5834;DHT22;2943;48.012;10.968;2022-12-16T11:41:06;-0.60;99.90
5834;DHT22;2943;48.012;10.968;2022-12-16T11:43:51;-0.60;99.90
5834;DHT22;2943;48.012;10.968;2022-12-16T11:46:38;-0.60;99.90
5834;DHT22;2943;48.012;10.968;2022-12-16T11:49:26;-0.70;99.90
5834;DHT22;2943;48.012;10.968;2022-12-16T11:52:15;-0.80;99.90
5834;DHT22;2943;48.012;10.968;2022-12-16T11:55:13;-0.80;99.90
5834;DHT22;2943;48.012;10.968;2022-12-16T11:58:04;-0.70;99.90
5834;DHT22;2943;48.012;10.968;2022-12-16T12:00:57;-0.70;99.90
5834;DHT22;2943;48.012;10.968;2022-12-16T12:03:45;-0.60;99.90
5834;DHT22;2943;48.012;10.968;2022-12-16T12:06:36;-0.60;99.90
5834;DHT22;2943;48.012;10.968;2022-12-16T12:09:24;-0.60;99.90
5834;DHT22;2943;48.012;10.968;2022-12-16T12:12:18;-0.80;99.90
5834;DHT22;2943;48.012;10.968;2022-12-16T12:15:14;-0.90;99.90
5834;DHT22;2943;48.012;10.968;2022-12-16T12:18:04;-0.90;99.90
5834;DHT22;2943;48.012;10.968;2022-12-16T12:20:56;-0.90;99.90
5834;DHT22;2943;48.012;10.968;2022-12-16T12:23:50;-0.80;99.90
5834;DHT22;2943;48.012;10.968;2022-12-16T12:26:46;-0.90;99.90
5834;DHT22;2943;48.012;10.968;2022-12-16T12:29:40;-1.00;99.90
5834;DHT22;2943;48.012;10.968;2022-12-16T12:32:37;-1.00;99.90
5834;DHT22;2943;48.012;10.968;2022-12-16T12:35:38;-1.00;99.90
5834;DHT22;2943;48.012;10.968;2022-12-16T12:38:31;-1.10;99.90
5834;DHT22;2943;48.012;10.968;2022-12-16T12:41:22;-1.10;99.90
5834;DHT22;2943;48.012;10.968;2022-12-16T12:44:18;-1.00;99.90
5834;DHT22;2943;48.012;10.968;2022-12-16T12:47:08;-1.00;99.90
5834;DHT22;2943;48.012;10.968;2022-12-16T12:49:56;-0.90;99.90
5834;DHT22;2943;48.012;10.968;2022-12-16T12:53:05;-1.00;99.90
5834;DHT22;2943;48.012;10.968;2022-12-16T12:56:01;-1.00;99.90
5834;DHT22;2943;48.012;10.968;2022-12-16T12:58:50;-1.00;99.90
5834;DHT22;2943;48.012;10.968;2022-12-16T13:01:40;-1.00;99.90
5834;DHT22;2943;48.012;10.968;2022-12-16T13:04:28;-1.00;99.90
5834;DHT22;2943;48.012;10.968;2022-12-16T13:07:14;-1.00;99.90
5834;DHT22;2943;48.012;10.968;2022-12-16T13:10:16;-1.10;99.90
5834;DHT22;2943;48.012;10.968;2022-12-16T13:13:31;-1.10;99.90
5834;DHT22;2943;48.012;10.968;2022-12-16T13:19:43;-1.20;99.90
5834;DHT22;2943;48.012;10.968;2022-12-16T13:22:36;-1.30;99.90
5834;DHT22;2943;48.012;10.968;2022-12-16T13:25:43;-1.30;99.90
5834;DHT22;2943;48.012;10.968;2022-12-16T13:28:34;-1.30;99.90
5834;DHT22;2943;48.012;10.968;2022-12-16T13:31:21;-1.30;99.90
5834;DHT22;2943;48.012;10.968;2022-12-16T13:34:19;-1.40;99.90
5834;DHT22;2943;48.012;10.968;2022-12-16T13:37:19;-1.30;99.90
5834;DHT22;2943;48.012;10.968;2022-12-16T13:40:13;-1.30;99.90
5834;DHT22;2943;48.012;10.968;2022-12-16T13:42:59;-1.30;99.90
5834;DHT22;2943;48.012;10.968;2022-12-16T13:46:14;-1.30;99.90
5834;DHT22;2943;48.012;10.968;2022-12-16T13:49:39;-1.40;99.90
5834;DHT22;2943;48.012;10.968;2022-12-16T13:52:39;-1.40;99.90
5834;DHT22;2943;48.012;10.968;2022-12-16T13:55:28;-1.40;99.90
5834;DHT22;2943;48.012;10.968;2022-12-16T13:58:31;-1.50;99.90
5834;DHT22;2943;48.012;10.968;2022-12-16T14:01:21;-1.60;99.90
5834;DHT22;2943;48.012;10.968;2022-12-16T14:04:09;-1.60;99.90
5834;DHT22;2943;48.012;10.968;2022-12-16T14:06:59;-1.70;99.90
5834;DHT22;2943;48.012;10.968;2022-12-16T14:09:47;-1.80;99.90
5834;DHT22;2943;48.012;10.968;2022-12-16T14:12:55;-1.80;99.90
5834;DHT22;2943;48.012;10.968;2022-12-16T14:15:50;-1.90;99.90
5834;DHT22;2943;48.012;10.968;2022-12-16T14:18:43;-1.80;99.90
5834;DHT22;2943;48.012;10.968;2022-12-16T14:21:38;-1.90;99.90
5834;DHT22;2943;48.012;10.968;2022-12-16T14:24:27;-1.80;99.90
5834;DHT22;2943;48.012;10.968;2022-12-16T14:27:18;-1.90;99.90
5834;DHT22;2943;48.012;10.968;2022-12-16T14:30:15;-1.90;99.90
5834;DHT22;2943;48.012;10.968;2022-12-16T14:33:13;-1.90;99.90
5834;DHT22;2943;48.012;10.968;2022-12-16T14:35:57;-1.90;99.90
5834;DHT22;2943;48.012;10.968;2022-12-16T14:38:47;-1.90;99.90
5834;DHT22;2943;48.012;10.968;2022-12-16T14:41:32;-1.90;99.90
5834;DHT22;2943;48.012;10.968;2022-12-16T14:44:19;-1.90;99.90
5834;DHT22;2943;48.012;10.968;2022-12-16T14:47:04;-2.00;99.90
5834;DHT22;2943;48.012;10.968;2022-12-16T14:49:51;-2.00;99.90
5834;DHT22;2943;48.012;10.968;2022-12-16T14:52:36;-2.10;99.90
5834;DHT22;2943;48.012;10.968;2022-12-16T14:55:28;-2.20;99.90
5834;DHT22;2943;48.012;10.968;2022-12-16T14:58:14;-2.30;99.90
5834;DHT22;2943;48.012;10.968;2022-12-16T15:01:06;-2.20;99.90
5834;DHT22;2943;48.012;10.968;2022-12-16T15:03:54;-2.20;99.90
5834;DHT22;2943;48.012;10.968;2022-12-16T15:06:40;-2.30;99.90
5834;DHT22;2943;48.012;10.968;2022-12-16T15:09:39;-2.20;99.90
5834;DHT22;2943;48.012;10.968;2022-12-16T15:12:39;-2.20;99.90
5834;DHT22;2943;48.012;10.968;2022-12-16T15:15:29;-2.20;99.90
5834;DHT22;2943;48.012;10.968;2022-12-16T15:18:18;-2.20;99.90
5834;DHT22;2943;48.012;10.968;2022-12-16T15:21:06;-2.20;99.90
5834;DHT22;2943;48.012;10.968;2022-12-16T15:23:50;-2.20;99.90
5834;DHT22;2943;48.012;10.968;2022-12-16T15:26:36;-2.20;99.90
5834;DHT22;2943;48.012;10.968;2022-12-16T15:29:30;-2.30;99.90
5834;DHT22;2943;48.012;10.968;2022-12-16T15:32:29;-2.40;99.90
5834;DHT22;2943;48.012;10.968;2022-12-16T15:35:29;-2.40;99.90
5834;DHT22;2943;48.012;10.968;2022-12-16T15:38:22;-2.40;99.90
5834;DHT22;2943;48.012;10.968;2022-12-16T15:41:19;-2.40;99.90
5834;DHT22;2943;48.012;10.968;2022-12-16T15:44:05;-2.50;99.90
5834;DHT22;2943;48.012;10.968;2022-12-16T15:46:55;-2.50;99.90
5834;DHT22;2943;48.012;10.968;2022-12-16T15:49:40;-2.50;99.90
5834;DHT22;2943;48.012;10.968;2022-12-16T15:52:34;-2.50;99.90
5834;DHT22;2943;48.012;10.968;2022-12-16T15:55:29;-2.60;99.90
5834;DHT22;2943;48.012;10.968;2022-12-16T15:58:18;-2.60;99.90
5834;DHT22;2943;48.012;10.968;2022-12-16T16:01:03;-2.60;99.90
5834;DHT22;2943;48.012;10.968;2022-12-16T16:03:49;-2.60;99.90
5834;DHT22;2943;48.012;10.968;2022-12-16T16:06:34;-2.70;99.90
5834;DHT22;2943;48.012;10.968;2022-12-16T16:09:22;-2.70;99.90
5834;DHT22;2943;48.012;10.968;2022-12-16T16:12:08;-2.70;99.90
5834;DHT22;2943;48.012;10.968;2022-12-16T16:14:52;-2.70;99.90
5834;DHT22;2943;48.012;10.968;2022-12-16T16:17:37;-2.70;99.90
5834;DHT22;2943;48.012;10.968;2022-12-16T16:20:21;-2.80;99.90
5834;DHT22;2943;48.012;10.968;2022-12-16T16:23:12;-2.70;99.90
5834;DHT22;2943;48.012;10.968;2022-12-16T16:25:58;-2.70;99.90
5834;DHT22;2943;48.012;10.968;2022-12-16T16:28:51;-2.70;99.90
5834;DHT22;2943;48.012;10.968;2022-12-16T16:31:35;-2.70;99.90
5834;DHT22;2943;48.012;10.968;2022-12-16T16:34:20;-2.70;99.90
5834;DHT22;2943;48.012;10.968;2022-12-16T16:37:12;-2.70;99.90
5834;DHT22;2943;48.012;10.968;2022-12-16T16:39:57;-2.70;99.90
5834;DHT22;2943;48.012;10.968;2022-12-16T16:42:43;-2.60;99.90
5834;DHT22;2943;48.012;10.968;2022-12-16T16:45:30;-2.70;99.90
5834;DHT22;2943;48.012;10.968;2022-12-16T16:48:16;-2.70;99.90
5834;DHT22;2943;48.012;10.968;2022-12-16T16:51:02;-2.70;99.90
5834;DHT22;2943;48.012;10.968;2022-12-16T16:53:46;-2.70;99.90
5834;DHT22;2943;48.012;10.968;2022-12-16T16:56:33;-2.70;99.90
5834;DHT22;2943;48.012;10.968;2022-12-16T16:59:28;-2.70;99.90
5834;DHT22;2943;48.012;10.968;2022-12-16T17:02:16;-2.80;99.90
5834;DHT22;2943;48.012;10.968;2022-12-16T17:05:01;-2.80;99.90
5834;DHT22;2943;48.012;10.968;2022-12-16T17:07:45;-2.80;99.90
5834;DHT22;2943;48.012;10.968;2022-12-16T17:10:29;-2.80;99.90
5834;DHT22;2943;48.012;10.968;2022-12-16T17:13:13;-2.80;99.90
5834;DHT22;2943;48.012;10.968;2022-12-16T17:15:59;-2.80;99.90
5834;DHT22;2943;48.012;10.968;2022-12-16T17:18:43;-2.90;99.90
5834;DHT22;2943;48.012;10.968;2022-12-16T17:21:27;-2.90;99.90
5834;DHT22;2943;48.012;10.968;2022-12-16T17:24:12;-2.90;99.90
5834;DHT22;2943;48.012;10.968;2022-12-16T17:26:56;-2.90;99.90
5834;DHT22;2943;48.012;10.968;2022-12-16T17:29:40;-2.90;99.90
5834;DHT22;2943;48.012;10.968;2022-12-16T17:32:26;-2.90;99.90
5834;DHT22;2943;48.012;10.968;2022-12-16T17:35:10;-3.00;99.90
5834;DHT22;2943;48.012;10.968;2022-12-16T17:37:56;-3.00;99.90